createdAt,value
2022-11-01T00:01:55.432Z,68.70
2022-11-01T00:03:57.171Z,68.70
2022-11-01T00:05:59.315Z,69.00
2022-11-01T00:08:01.310Z,68.80
2022-11-01T00:10:03.813Z,68.90
2022-11-01T00:12:05.794Z,68.80
2022-11-01T00:14:07.665Z,68.80
2022-11-01T00:16:09.383Z,69.00
2022-11-01T00:21:39.315Z,69.20
2022-11-01T00:44:09.239Z,69.10
2022-11-01T00:46:52.021Z,69.00
2022-11-01T00:49:05.385Z,69.00
2022-11-01T00:51:16.028Z,68.80
2022-11-01T00:53:30.506Z,68.60
2022-11-01T00:55:39.916Z,68.60
2022-11-01T00:58:01.787Z,68.80
2022-11-01T01:00:28.403Z,69.00
2022-11-01T01:02:33.199Z,69.00
2022-11-01T01:04:45.532Z,68.80
2022-11-01T01:06:56.706Z,69.00
2022-11-01T01:09:02.629Z,69.00
2022-11-01T01:11:17.771Z,69.00
2022-11-01T01:13:45.003Z,69.00
2022-11-01T01:15:59.232Z,69.00
2022-11-01T01:21:02.230Z,69.10
2022-11-01T01:23:23.039Z,69.00
2022-11-01T01:25:33.821Z,69.10
2022-11-01T01:27:40.943Z,69.10
2022-11-01T01:29:54.936Z,69.00
2022-11-01T01:32:06.441Z,69.10
2022-11-01T01:34:18.913Z,69.10
2022-11-01T01:37:18.804Z,69.00
2022-11-01T01:39:23.299Z,69.10
2022-11-01T01:41:46.461Z,69.00
2022-11-01T01:44:10.305Z,69.00
2022-11-01T01:59:55.229Z,68.70
2022-11-01T02:10:04.711Z,69.10
2022-11-01T02:19:49.300Z,69.20
2022-11-01T02:22:09.945Z,69.30
2022-11-01T02:30:26.567Z,69.30
2022-11-01T02:33:32.132Z,69.10
2022-11-01T02:39:43.739Z,69.20
2022-11-01T02:42:39.389Z,69.20
2022-11-01T02:45:21.941Z,70.00
2022-11-01T02:47:28.529Z,69.20
2022-11-01T02:50:02.423Z,69.30
2022-11-01T02:52:10.545Z,69.20
2022-11-01T02:54:32.787Z,69.10
2022-11-01T02:56:43.917Z,69.30
2022-11-01T02:58:52.027Z,69.20
2022-11-01T03:01:25.637Z,69.20
2022-11-01T03:03:55.233Z,69.10
2022-11-01T03:06:06.812Z,69.10
2022-11-01T03:10:52.050Z,69.10
2022-11-01T03:13:14.360Z,69.20
2022-11-01T03:15:56.547Z,69.10
2022-11-01T03:18:17.002Z,69.10
2022-11-01T03:20:35.507Z,69.10
2022-11-01T03:22:45.867Z,69.20
2022-11-01T03:24:52.281Z,68.70
2022-11-01T03:27:03.922Z,69.00
2022-11-01T03:29:12.601Z,69.30
2022-11-01T03:31:17.806Z,69.40
2022-11-01T03:33:23.488Z,69.50
2022-11-01T03:35:28.784Z,69.50
2022-11-01T03:37:32.902Z,69.70
2022-11-01T03:39:46.006Z,69.60
2022-11-01T03:41:49.373Z,69.50
2022-11-01T03:43:51.702Z,69.50
2022-11-01T03:45:53.894Z,69.70
2022-11-01T03:47:55.623Z,69.80
2022-11-01T03:50:16.766Z,69.90
2022-11-01T03:52:18.444Z,69.80
2022-11-01T03:54:20.178Z,70.00
2022-11-01T03:56:21.975Z,70.30
2022-11-01T03:58:23.848Z,70.20
2022-11-01T04:00:25.463Z,70.10
2022-11-01T04:02:27.075Z,70.10
2022-11-01T04:04:28.700Z,70.10
2022-11-01T04:06:30.392Z,70.10
2022-11-01T04:08:32.200Z,70.00
2022-11-01T04:10:34.152Z,70.00
2022-11-01T04:12:35.882Z,70.00
2022-11-01T04:14:56.242Z,70.10
2022-11-01T04:17:16.360Z,70.00
2022-11-01T04:19:36.391Z,70.20
2022-11-01T04:21:38.202Z,70.20
2022-11-01T04:23:39.979Z,70.10
2022-11-01T04:25:41.616Z,70.30
2022-11-01T04:27:43.244Z,70.40
2022-11-01T04:29:45.084Z,70.20
2022-11-01T04:31:46.719Z,70.40
2022-11-01T04:33:48.354Z,70.40
2022-11-01T04:35:50.083Z,70.40
2022-11-01T04:38:01.014Z,70.40
2022-11-01T04:40:03.027Z,70.60
2022-11-01T04:42:05.305Z,70.00
2022-11-01T04:44:07.434Z,70.50
2022-11-01T04:46:09.078Z,69.70
2022-11-01T04:48:16.868Z,69.80
2022-11-01T04:50:21.830Z,69.80
2022-11-01T04:52:23.572Z,69.50
2022-11-01T04:54:25.182Z,69.70
2022-11-01T04:56:26.879Z,70.10
2022-11-01T04:58:28.506Z,70.10
2022-11-01T05:00:32.925Z,70.20
2022-11-01T05:02:34.806Z,69.70
2022-11-01T05:04:36.449Z,69.50
2022-11-01T05:06:38.320Z,69.80
2022-11-01T05:08:39.990Z,70.00
2022-11-01T05:10:43.149Z,70.10
2022-11-01T05:12:44.954Z,69.90
2022-11-01T05:14:46.575Z,70.10
2022-11-01T05:16:48.204Z,69.70
2022-11-01T05:18:49.883Z,69.80
2022-11-01T05:20:51.491Z,69.50
2022-11-01T05:22:57.107Z,69.50
2022-11-01T05:24:58.783Z,69.40
2022-11-01T05:27:00.725Z,69.20
2022-11-01T05:29:08.710Z,69.70
2022-11-01T05:31:11.038Z,69.90
2022-11-01T05:33:12.693Z,70.20
2022-11-01T05:35:14.380Z,69.80
2022-11-01T05:37:16.255Z,69.80
2022-11-01T05:39:17.886Z,69.70
2022-11-01T05:41:19.522Z,69.90
2022-11-01T05:43:21.124Z,69.40
2022-11-01T05:45:22.832Z,69.70
2022-11-01T05:47:24.463Z,69.80
2022-11-01T05:49:26.078Z,69.90
2022-11-01T05:51:27.758Z,69.70
2022-11-01T05:53:29.407Z,69.90
2022-11-01T05:55:31.036Z,69.90
2022-11-01T05:57:33.671Z,70.20
2022-11-01T05:59:35.379Z,70.00
2022-11-01T06:01:37.027Z,70.00
2022-11-01T06:03:38.702Z,70.10
2022-11-01T06:05:40.390Z,70.20
2022-11-01T06:07:41.995Z,69.80
2022-11-01T06:09:43.653Z,70.00
2022-11-01T06:11:45.544Z,70.30
2022-11-01T06:13:47.162Z,70.50
2022-11-01T06:15:48.805Z,70.70
2022-11-01T06:18:22.878Z,70.50
2022-11-01T06:20:57.685Z,70.40
2022-11-01T06:23:13.294Z,70.60
2022-11-01T06:25:24.813Z,70.40
2022-11-01T06:27:31.258Z,70.20
2022-11-01T06:29:35.764Z,70.60
2022-11-01T06:31:39.308Z,70.30
2022-11-01T06:33:43.690Z,70.20
2022-11-01T06:35:55.310Z,70.50
2022-11-01T06:38:17.315Z,70.30
2022-11-01T06:40:26.909Z,70.40
2022-11-01T06:42:34.149Z,70.50
2022-11-01T06:44:44.506Z,70.70
2022-11-01T06:46:55.581Z,70.60
2022-11-01T06:49:10.722Z,70.60
2022-11-01T06:51:25.496Z,70.70
2022-11-01T06:53:54.836Z,70.70
2022-11-01T06:56:05.691Z,70.20
2022-11-01T07:00:48.065Z,70.70
2022-11-01T07:03:11.100Z,70.60
2022-11-01T07:05:24.424Z,70.00
2022-11-01T07:07:28.408Z,70.40
2022-11-01T07:09:41.184Z,70.40
2022-11-01T07:11:56.625Z,70.30
2022-11-01T07:14:38.542Z,70.50
2022-11-01T07:17:05.207Z,70.50
2022-11-01T07:19:41.932Z,70.70
2022-11-01T07:22:02.075Z,70.60
2022-11-01T07:24:07.798Z,70.60
2022-11-01T07:26:44.402Z,71.00
2022-11-01T07:31:57.242Z,70.80
2022-11-01T07:34:01.909Z,71.10
2022-11-01T07:36:13.805Z,71.20
2022-11-01T07:38:25.919Z,71.20
2022-11-01T07:41:02.649Z,71.10
2022-11-01T07:43:16.120Z,71.40
2022-11-01T07:45:28.928Z,71.70
2022-11-01T07:47:34.178Z,71.40
2022-11-01T07:57:49.969Z,70.70
2022-11-01T07:59:59.235Z,70.80
2022-11-01T08:07:28.943Z,71.30
2022-11-01T08:09:49.906Z,71.00
2022-11-01T08:12:18.457Z,71.00
2022-11-01T08:14:35.194Z,71.20
2022-11-01T08:16:53.289Z,71.10
2022-11-01T08:19:05.228Z,71.30
2022-11-01T08:21:33.344Z,71.20
2022-11-01T08:26:47.171Z,71.50
2022-11-01T08:28:59.880Z,71.50
2022-11-01T08:31:19.489Z,71.50
2022-11-01T08:33:43.150Z,71.20
2022-11-01T08:36:02.572Z,71.30
2022-11-01T08:38:47.119Z,71.60
2022-11-01T08:41:16.168Z,71.40
2022-11-01T08:43:40.663Z,71.70
2022-11-01T08:45:53.608Z,71.70
2022-11-01T08:48:31.509Z,71.40
2022-11-01T08:50:46.795Z,71.90
2022-11-01T08:53:23.062Z,72.00
2022-11-01T08:55:27.285Z,71.90
2022-11-01T08:58:00.594Z,71.70
2022-11-01T09:01:03.856Z,71.90
2022-11-01T09:02:57.708Z,71.60
2022-11-01T09:05:11.057Z,71.40
2022-11-01T09:07:16.859Z,71.70
2022-11-01T09:09:30.697Z,71.70
2022-11-01T09:11:39.426Z,71.80
2022-11-01T09:13:41.236Z,71.90
2022-11-01T09:15:43.078Z,71.80
2022-11-01T09:17:54.338Z,71.70
2022-11-01T09:23:51.249Z,71.20
2022-11-01T09:26:10.902Z,71.00
2022-11-01T09:28:22.980Z,71.10
2022-11-01T09:30:41.513Z,71.20
2022-11-01T09:32:51.796Z,71.60
2022-11-01T09:35:15.661Z,71.40
2022-11-01T09:37:30.373Z,71.70
2022-11-01T09:39:35.120Z,71.70
2022-11-01T09:41:39.097Z,71.80
2022-11-01T09:43:53.387Z,71.60
2022-11-01T09:46:00.825Z,71.50
2022-11-01T09:48:10.933Z,71.90
2022-11-01T09:50:15.587Z,71.60
2022-11-01T09:52:43.234Z,71.60
2022-11-01T09:54:49.007Z,71.60
2022-11-01T09:57:26.794Z,71.60
2022-11-01T09:59:48.848Z,71.60
2022-11-01T10:02:09.886Z,71.50
2022-11-01T10:04:23.412Z,71.50
2022-11-01T10:06:38.180Z,71.50
2022-11-01T10:09:08.701Z,71.60
2022-11-01T10:11:33.605Z,71.70
2022-11-01T10:14:02.235Z,71.70
2022-11-01T10:19:36.722Z,71.50
2022-11-01T10:25:22.457Z,71.50
2022-11-01T10:28:11.897Z,71.40
2022-11-01T10:30:30.698Z,72.30
2022-11-01T10:33:25.834Z,71.20
2022-11-01T10:35:51.943Z,71.40
2022-11-01T10:38:49.639Z,71.20
2022-11-01T10:40:49.638Z,71.30
2022-11-01T10:42:59.747Z,71.10
2022-11-01T10:45:07.607Z,71.10
2022-11-01T10:50:09.569Z,70.90
2022-11-01T10:52:16.229Z,70.90
2022-11-01T10:54:31.715Z,70.90
2022-11-01T10:56:41.898Z,71.00
2022-11-01T10:58:48.996Z,70.70
2022-11-01T11:00:53.278Z,70.40
2022-11-01T11:03:12.178Z,70.40
2022-11-01T11:05:16.983Z,70.40
2022-11-01T11:07:25.761Z,70.20
2022-11-01T11:09:43.468Z,70.20
2022-11-01T11:11:46.867Z,70.10
2022-11-01T11:13:56.167Z,69.90
2022-11-01T11:16:04.326Z,69.90
2022-11-01T11:18:15.371Z,70.00
2022-11-01T11:20:21.103Z,70.20
2022-11-01T11:22:25.749Z,70.00
2022-11-01T11:24:35.424Z,70.10
2022-11-01T11:26:39.358Z,69.80
2022-11-01T11:28:44.448Z,69.70
2022-11-01T11:30:46.502Z,69.90
2022-11-01T11:32:49.130Z,69.80
2022-11-01T11:34:52.496Z,69.80
2022-11-01T11:36:55.085Z,69.40
2022-11-01T11:38:57.576Z,68.80
2022-11-01T11:40:59.365Z,69.10
2022-11-01T11:43:20.962Z,69.00
2022-11-01T11:45:24.790Z,68.70
2022-11-01T11:47:28.368Z,68.50
2022-11-01T11:49:30.383Z,68.40
2022-11-01T11:51:37.638Z,68.10
2022-11-01T11:53:39.534Z,68.20
2022-11-01T11:55:44.425Z,68.00
2022-11-01T11:57:52.913Z,67.80
2022-11-01T11:59:56.031Z,68.00
2022-11-01T12:02:08.041Z,68.10
2022-11-01T12:04:16.397Z,68.10
2022-11-01T12:06:25.082Z,67.80
2022-11-01T12:08:38.108Z,67.70
2022-11-01T12:10:45.614Z,67.90
2022-11-01T12:12:51.499Z,67.90
2022-11-01T12:14:54.219Z,68.10
2022-11-01T12:16:55.984Z,67.80
2022-11-01T12:18:58.937Z,68.00
2022-11-01T12:21:01.069Z,67.80
2022-11-01T12:23:02.806Z,68.00
2022-11-01T12:25:06.551Z,67.20
2022-11-01T12:27:13.155Z,67.20
2022-11-01T12:29:26.999Z,67.20
2022-11-01T12:31:31.626Z,67.00
2022-11-01T12:33:41.094Z,66.80
2022-11-01T12:35:44.068Z,66.70
2022-11-01T12:37:45.892Z,66.50
2022-11-01T12:40:23.401Z,66.60
2022-11-01T12:42:29.259Z,66.40
2022-11-01T12:44:38.460Z,66.70
2022-11-01T12:46:45.901Z,67.10
2022-11-01T12:48:54.504Z,67.20
2022-11-01T12:50:58.972Z,67.00
2022-11-01T12:53:03.364Z,66.10
2022-11-01T12:55:05.433Z,66.30
2022-11-01T12:57:14.614Z,66.00
2022-11-01T12:59:21.568Z,66.10
2022-11-01T13:01:45.720Z,65.90
2022-11-01T13:03:57.877Z,65.70
2022-11-01T13:05:59.555Z,65.20
2022-11-01T13:08:04.398Z,65.40
2022-11-01T13:10:20.617Z,65.30
2022-11-01T13:12:22.396Z,64.40
2022-11-01T13:14:26.815Z,64.70
2022-11-01T13:16:34.427Z,65.00
2022-11-01T13:18:39.283Z,65.00
2022-11-01T13:20:44.318Z,65.00
2022-11-01T13:23:06.856Z,65.30
2022-11-01T13:25:22.727Z,65.20
2022-11-01T13:27:38.116Z,64.80
2022-11-01T13:29:48.867Z,64.70
2022-11-01T13:32:12.339Z,64.20
2022-11-01T13:34:32.680Z,64.70
2022-11-01T13:36:42.256Z,63.60
2022-11-01T13:39:07.209Z,63.40
2022-11-01T13:41:09.022Z,62.40
2022-11-01T13:43:13.183Z,62.30
2022-11-01T13:45:28.521Z,63.00
2022-11-01T13:47:33.065Z,63.80
2022-11-01T13:49:40.743Z,63.30
2022-11-01T13:51:56.653Z,62.30
2022-11-01T13:54:07.480Z,62.40
2022-11-01T13:56:13.610Z,61.30
2022-11-01T13:58:19.039Z,60.80
2022-11-01T14:00:35.892Z,61.40
2022-11-01T14:02:46.622Z,61.60
2022-11-01T14:04:54.355Z,61.90
2022-11-01T14:07:04.196Z,62.40
2022-11-01T14:09:30.200Z,62.10
2022-11-01T14:11:41.178Z,61.80
2022-11-01T14:13:45.833Z,61.90
2022-11-01T14:15:53.758Z,61.70
2022-11-01T14:18:04.912Z,61.20
2022-11-01T14:20:08.447Z,61.70
2022-11-01T14:22:22.101Z,61.40
2022-11-01T14:24:33.561Z,61.70
2022-11-01T14:26:36.933Z,61.10
2022-11-01T14:28:48.728Z,61.70
2022-11-01T14:30:50.879Z,61.70
2022-11-01T14:33:00.531Z,61.90
2022-11-01T14:35:07.202Z,62.10
2022-11-01T14:37:17.368Z,62.20
2022-11-01T14:39:21.230Z,62.30
2022-11-01T14:41:24.543Z,62.10
2022-11-01T14:43:33.698Z,61.60
2022-11-01T14:45:40.854Z,61.90
2022-11-01T14:47:43.334Z,61.60
2022-11-01T14:49:45.422Z,61.90
2022-11-01T14:52:09.417Z,62.00
2022-11-01T14:54:20.243Z,62.20
2022-11-01T14:56:22.590Z,61.80
2022-11-01T14:58:24.323Z,61.20
2022-11-01T15:00:30.248Z,61.10
2022-11-01T15:02:32.143Z,61.20
2022-11-01T15:04:41.528Z,60.80
2022-11-01T15:06:43.248Z,61.00
2022-11-01T15:08:45.128Z,60.60
2022-11-01T15:10:47.121Z,60.80
2022-11-01T15:13:01.533Z,61.50
2022-11-01T15:15:04.054Z,61.30
2022-11-01T15:17:06.896Z,61.20
2022-11-01T15:19:14.906Z,60.80
2022-11-01T15:23:30.584Z,61.00
2022-11-01T15:25:32.379Z,60.80
2022-11-01T15:27:46.094Z,61.30
2022-11-01T15:29:48.469Z,60.60
2022-11-01T15:31:55.083Z,60.50
2022-11-01T15:33:56.795Z,61.40
2022-11-01T15:36:03.146Z,60.60
2022-11-01T15:38:19.554Z,60.90
2022-11-01T15:40:25.306Z,60.90
2022-11-01T15:42:34.727Z,60.40
2022-11-01T15:44:36.527Z,60.60
2022-11-01T15:46:42.407Z,60.80
2022-11-01T15:48:45.036Z,60.50
2022-11-01T15:50:48.239Z,60.40
2022-11-01T15:52:50.071Z,60.70
2022-11-01T15:54:58.557Z,60.70
2022-11-01T15:57:02.283Z,60.80
2022-11-01T15:59:04.175Z,60.70
2022-11-01T16:01:13.048Z,61.40
2022-11-01T16:03:24.176Z,61.10
2022-11-01T16:05:29.706Z,61.10
2022-11-01T16:07:32.962Z,60.80
2022-11-01T16:09:36.179Z,60.80
2022-11-01T16:11:38.643Z,60.70
2022-11-01T16:13:40.558Z,61.00
2022-11-01T16:15:57.480Z,60.90
2022-11-01T16:18:01.842Z,61.10
2022-11-01T16:20:07.734Z,61.10
2022-11-01T16:22:41.759Z,61.40
2022-11-01T16:24:43.499Z,61.20
2022-11-01T16:26:52.157Z,61.80
2022-11-01T16:28:54.817Z,61.60
2022-11-01T16:30:57.303Z,60.70
2022-11-01T16:33:08.054Z,61.10
2022-11-01T16:35:28.289Z,61.30
2022-11-01T16:37:30.040Z,61.10
2022-11-01T16:39:31.809Z,61.20
2022-11-01T16:41:39.866Z,61.40
2022-11-01T16:43:43.353Z,61.40
2022-11-01T16:45:45.118Z,61.00
2022-11-01T16:47:50.656Z,61.00
2022-11-01T16:49:54.969Z,61.70
2022-11-01T16:51:57.038Z,61.00
2022-11-01T16:54:00.269Z,61.30
2022-11-01T16:56:23.277Z,61.50
2022-11-01T16:58:26.064Z,61.70
2022-11-01T17:00:27.756Z,61.90
2022-11-01T17:02:30.036Z,61.90
2022-11-01T17:04:32.229Z,62.20
2022-11-01T17:06:38.607Z,62.00
2022-11-01T17:08:41.299Z,61.80
2022-11-01T17:10:43.115Z,62.20
2022-11-01T17:12:45.061Z,62.30
2022-11-01T17:14:46.883Z,62.50
2022-11-01T17:16:52.461Z,62.40
2022-11-01T17:18:55.756Z,62.70
2022-11-01T17:20:58.647Z,62.70
2022-11-01T17:23:00.458Z,62.80
2022-11-01T17:25:03.463Z,62.80
2022-11-01T17:27:05.466Z,62.60
2022-11-01T17:29:07.673Z,62.80
2022-11-01T17:31:09.466Z,63.00
2022-11-01T17:33:11.385Z,63.10
2022-11-01T17:35:15.371Z,63.20
2022-11-01T17:37:17.492Z,63.10
2022-11-01T17:39:20.102Z,63.20
2022-11-01T17:41:24.674Z,63.20
2022-11-01T17:43:26.648Z,63.30
2022-11-01T17:45:28.541Z,63.20
2022-11-01T17:47:30.265Z,63.40
2022-11-01T17:49:32.042Z,64.20
2022-11-01T17:51:34.144Z,63.50
2022-11-01T17:53:39.245Z,63.60
2022-11-01T17:55:42.061Z,63.60
2022-11-01T17:57:43.876Z,63.70
2022-11-01T17:59:45.704Z,63.70
2022-11-01T18:01:47.799Z,63.80
2022-11-01T18:03:49.651Z,64.00
2022-11-01T18:05:51.830Z,64.10
2022-11-01T18:29:13.175Z,64.50
2022-11-01T18:31:34.683Z,64.60
2022-11-01T18:40:07.041Z,64.60
2022-11-01T18:42:36.648Z,64.70
2022-11-01T18:45:13.211Z,64.80
2022-11-01T18:48:00.686Z,64.60
2022-11-01T18:50:53.665Z,64.70
2022-11-01T18:53:48.247Z,64.90
2022-11-01T18:56:30.997Z,64.80
2022-11-01T18:59:03.829Z,64.90
2022-11-01T19:01:42.624Z,64.90
2022-11-01T19:06:50.135Z,64.90
2022-11-01T19:09:26.165Z,64.90
2022-11-01T19:11:39.953Z,65.70
2022-11-01T19:13:47.344Z,65.10
2022-11-01T19:16:00.019Z,65.00
2022-11-01T19:18:27.090Z,65.00
2022-11-01T19:20:42.147Z,65.10
2022-11-01T19:22:56.409Z,65.30
2022-11-01T19:25:17.383Z,65.40
2022-11-01T19:27:31.566Z,65.40
2022-11-01T19:32:27.058Z,65.40
2022-11-01T19:37:41.537Z,65.40
2022-11-01T19:47:16.288Z,65.80
2022-11-01T19:50:08.690Z,66.00
2022-11-01T19:52:14.807Z,66.00
2022-11-01T19:54:18.654Z,66.00
2022-11-01T19:56:31.663Z,65.90
2022-11-01T19:58:49.701Z,66.00
2022-11-01T20:04:04.617Z,66.00
2022-11-01T20:07:16.279Z,65.80
2022-11-01T20:12:20.035Z,66.00
2022-11-01T20:14:29.483Z,66.00
2022-11-01T20:16:45.963Z,65.90
2022-11-01T20:19:05.284Z,66.10
2022-11-01T20:21:09.714Z,66.10
2022-11-01T20:23:30.267Z,66.10
2022-11-01T20:25:59.517Z,66.10
2022-11-01T20:28:13.197Z,66.40
2022-11-01T20:30:25.583Z,66.20
2022-11-01T20:32:31.806Z,66.20
2022-11-01T20:37:27.395Z,66.20
2022-11-01T20:40:03.482Z,66.20
2022-11-01T20:44:34.457Z,66.20
2022-11-01T20:46:57.942Z,66.20
2022-11-01T20:49:03.844Z,66.30
2022-11-01T20:51:19.140Z,66.30
2022-11-01T20:54:17.798Z,66.20
2022-11-01T20:56:48.667Z,66.40
2022-11-01T20:59:31.552Z,66.30
2022-11-01T21:04:07.657Z,66.40
2022-11-01T21:06:37.259Z,66.40
2022-11-01T21:08:41.919Z,66.30
2022-11-01T21:11:10.939Z,66.40
2022-11-01T21:14:14.566Z,66.20
2022-11-01T21:16:56.493Z,66.30
2022-11-01T21:19:57.688Z,66.40
2022-11-01T21:22:38.365Z,66.60
2022-11-01T21:24:58.385Z,66.50
2022-11-01T21:27:42.590Z,66.50
2022-11-01T21:31:02.651Z,66.50
2022-11-01T21:35:58.377Z,66.30
2022-11-01T21:38:48.808Z,66.50
2022-11-01T21:41:00.852Z,66.40
2022-11-01T21:43:34.779Z,66.50
2022-11-01T21:46:05.359Z,66.40
2022-11-01T21:49:05.873Z,66.30
2022-11-01T21:53:44.591Z,67.50
2022-11-01T21:55:49.191Z,66.60
2022-11-01T21:58:14.093Z,66.50
2022-11-01T22:00:18.933Z,66.90
2022-11-01T22:02:23.802Z,66.80
2022-11-01T22:04:40.908Z,66.80
2022-11-01T22:06:56.106Z,67.10
2022-11-01T22:11:32.878Z,67.00
2022-11-01T22:13:47.225Z,67.20
2022-11-01T22:18:11.064Z,67.00
2022-11-01T22:20:24.054Z,67.30
2022-11-01T22:22:28.456Z,67.20
2022-11-01T22:24:42.380Z,67.20
2022-11-01T22:26:48.732Z,67.20
2022-11-01T22:29:07.088Z,67.20
2022-11-01T22:33:44.900Z,67.60
2022-11-01T22:35:54.299Z,67.50
2022-11-01T22:38:22.819Z,67.40
2022-11-01T22:40:43.418Z,67.30
2022-11-01T22:43:04.282Z,67.30
2022-11-01T22:45:19.001Z,67.60
2022-11-01T22:50:20.767Z,68.80
2022-11-01T22:52:44.352Z,67.90
2022-11-01T22:55:00.741Z,68.10
2022-11-01T22:57:20.599Z,67.90
2022-11-01T22:59:58.900Z,68.10
2022-11-01T23:02:36.686Z,68.00
2022-11-01T23:05:32.305Z,67.90
2022-11-01T23:08:16.339Z,68.00
2022-11-01T23:10:24.731Z,67.80
2022-11-01T23:15:40.204Z,67.90
2022-11-01T23:18:15.771Z,67.70
2022-11-01T23:20:45.168Z,67.70
2022-11-01T23:23:11.581Z,67.70
2022-11-01T23:31:47.426Z,67.40
2022-11-01T23:34:01.195Z,67.50
2022-11-01T23:36:18.424Z,67.60
2022-11-01T23:42:15.001Z,67.40
2022-11-01T23:55:48.328Z,67.40
2022-11-01T23:57:59.428Z,67.50
